Terminal Aerodrome Forecast
Issued by NWS

Home | Current Version | Previous Version | Text Only | Print | Product List | Glossary On
Versions: 1 2 3 4 5 6 7 8 9 10 11 12
000
FTUS43 KUNR 032320
TAFGCC
TAF
KGCC 032320Z 0400/0424 12010KT P6SM SCT080 BKN150
      TEMPO 0401/0405 P6SM -TSRA BKN060CB
     FM041600 VRB10KT P6SM -TSRA OVC040CB=

USA.gov is the U.S. government's official web portal to all federal, state and local government web resources and services.